Time;durP1;ratioP1;P1;durP2;ratioP2;P2;SDS_P1;SDS_P2;PMS_P1;PMS_P2;Temp;Humidity;BMP_temperature;BMP_pressure;BME280_temperature;BME280_humidity;BME280_pressure;Samples;Min_cycle;Max_cycle;Signal;HPM_P1;HPM_P2
2022/08/02 00:01:42;;;;;;;4.63;3.10;;;24.60;88.90;;;;;;5020734;28;20275;-77
2022/08/02 00:04:08;;;;;;;3.27;2.97;;;24.60;89.30;;;;;;5033231;28;20180;-78
2022/08/02 00:06:35;;;;;;;3.00;2.70;;;24.60;89.50;;;;;;5016240;28;20541;-77
2022/08/02 00:09:01;;;;;;;3.00;2.70;;;24.50;89.90;;;;;;5021376;28;20439;-78
2022/08/02 00:11:27;;;;;;;3.03;2.83;;;24.60;89.50;;;;;;5015280;28;20522;-79
2022/08/02 00:13:53;;;;;;;4.30;3.10;;;24.60;89.60;;;;;;5019039;28;20530;-79
2022/08/02 00:16:18;;;;;;;3.00;2.73;;;24.50;89.90;;;;;;5021915;28;20211;-77
2022/08/02 00:18:44;;;;;;;2.97;2.70;;;24.60;90.20;;;;;;5021401;28;20188;-78
2022/08/02 00:21:10;;;;;;;3.73;3.17;;;24.50;90.20;;;;;;5039176;28;20208;-79
2022/08/02 00:23:35;;;;;;;3.20;3.00;;;24.40;90.60;;;;;;5021918;28;20185;-79
2022/08/02 00:26:01;;;;;;;3.43;3.13;;;24.30;91.00;;;;;;5022919;28;20274;-79
2022/08/02 00:28:28;;;;;;;3.47;2.83;;;24.30;91.00;;;;;;5025114;28;20177;-79
2022/08/02 00:30:54;;;;;;;5.40;2.93;;;24.30;91.20;;;;;;5020165;28;20507;-80
2022/08/02 00:33:20;;;;;;;3.03;2.70;;;24.30;91.40;;;;;;5025549;28;20423;-79
2022/08/02 00:35:46;;;;;;;2.83;2.63;;;24.20;91.60;;;;;;5022528;28;20483;-80
2022/08/02 00:38:11;;;;;;;2.93;2.63;;;24.10;91.90;;;;;;5024924;28;20183;-79
2022/08/02 00:40:37;;;;;;;3.27;2.77;;;24.10;92.20;;;;;;5025038;28;20250;-80
2022/08/02 00:43:08;;;;;;;3.30;3.00;;;24.10;92.20;;;;;;5025562;28;20632;-80
2022/08/02 00:45:36;;;;;;;5.40;2.90;;;24.00;92.60;;;;;;5024752;28;20431;-80
2022/08/02 00:48:02;;;;;;;3.73;3.30;;;24.00;92.90;;;;;;5023996;28;20453;-80
2022/08/02 00:50:28;;;;;;;8.97;3.07;;;24.00;92.90;;;;;;5021695;28;20779;-80
2022/08/02 00:52:54;;;;;;;2.90;2.70;;;24.00;92.90;;;;;;5029700;28;20419;-80
2022/08/02 00:55:20;;;;;;;2.80;2.60;;;24.00;93.20;;;;;;5028174;28;20273;-81
2022/08/02 00:57:46;;;;;;;4.53;3.03;;;24.10;93.00;;;;;;5024737;28;20273;-80
2022/08/02 01:00:12;;;;;;;3.10;2.90;;;24.10;93.30;;;;;;5024939;28;20479;-80
2022/08/02 01:02:38;;;;;;;3.00;2.70;;;24.10;93.50;;;;;;5025554;28;20838;-78
2022/08/02 01:05:04;;;;;;;3.60;3.00;;;23.90;93.70;;;;;;5025666;28;20440;-80
2022/08/02 01:07:30;;;;;;;4.80;2.80;;;24.00;94.20;;;;;;5026086;28;20542;-80
2022/08/02 01:09:56;;;;;;;3.47;3.17;;;24.00;94.10;;;;;;5019692;28;20520;-80
2022/08/02 01:12:22;;;;;;;3.00;2.70;;;23.90;94.20;;;;;;5023664;28;20188;-80
2022/08/02 01:14:50;;;;;;;5.50;3.17;;;23.90;94.50;;;;;;5023381;28;20434;-79
2022/08/02 01:17:54;;;;;;;2.97;2.77;;;23.90;94.60;;;;;;5021290;28;20291;-79
2022/08/02 01:20:53;;;;;;;3.50;3.20;;;23.90;94.90;;;;;;5010695;28;20505;-79
2022/08/02 01:23:52;;;;;;;3.40;3.10;;;23.80;95.20;;;;;;5021746;28;20505;-78
2022/08/02 01:26:41;;;;;;;4.67;3.10;;;23.80;95.50;;;;;;5033272;28;20443;-80
2022/08/02 01:29:25;;;;;;;4.00;2.87;;;23.80;96.00;;;;;;5022197;28;20439;-78
2022/08/02 01:32:15;;;;;;;5.80;3.40;;;23.80;96.00;;;;;;5025269;28;20439;-78
2022/08/02 01:35:14;;;;;;;3.37;3.07;;;23.60;96.50;;;;;;5023779;28;20489;-79
2022/08/02 01:37:57;;;;;;;3.23;2.80;;;23.50;96.80;;;;;;5024793;28;20454;-79
2022/08/02 01:40:30;;;;;;;3.00;2.70;;;23.50;97.10;;;;;;5022315;28;20816;-79
2022/08/02 01:42:57;;;;;;;3.40;3.10;;;23.50;97.20;;;;;;5021256;28;20493;-78
2022/08/02 01:45:32;;;;;;;4.20;3.40;;;23.50;97.50;;;;;;5021194;28;20435;-78
2022/08/02 01:47:59;;;;;;;4.30;3.23;;;23.40;97.60;;;;;;5018703;28;20453;-80
2022/08/02 01:50:32;;;;;;;3.60;3.30;;;23.40;98.00;;;;;;5017808;28;20478;-80
2022/08/02 01:53:01;;;;;;;3.27;2.97;;;23.40;98.30;;;;;;5019154;28;20439;-80
2022/08/02 01:55:42;;;;;;;3.20;2.90;;;23.40;98.30;;;;;;5021107;28;20427;-79
2022/08/02 01:58:13;;;;;;;6.33;3.10;;;23.50;98.40;;;;;;5018022;28;20450;-79
2022/08/02 02:00:40;;;;;;;3.53;2.97;;;23.40;98.40;;;;;;5018520;28;20469;-79
2022/08/02 02:03:22;;;;;;;3.67;3.00;;;23.50;98.30;;;;;;5020804;28;20481;-80
2022/08/02 02:05:50;;;;;;;3.50;3.20;;;23.40;98.50;;;;;;5023494;28;20501;-80
2022/08/02 02:08:35;;;;;;;3.60;2.80;;;23.30;98.70;;;;;;5022841;28;20820;-80
2022/08/02 02:11:02;;;;;;;5.90;2.97;;;23.30;99.00;;;;;;5022895;28;20446;-80
2022/08/02 02:13:29;;;;;;;4.00;3.37;;;23.30;99.20;;;;;;5018643;28;21158;-80
2022/08/02 02:15:55;;;;;;;3.40;3.10;;;23.20;99.50;;;;;;5025390;28;20466;-80
2022/08/02 02:18:25;;;;;;;3.47;3.00;;;23.30;99.50;;;;;;5026291;28;20497;-79
2022/08/02 02:20:52;;;;;;;3.33;3.03;;;23.20;99.60;;;;;;5026503;28;20471;-78
2022/08/02 02:23:18;;;;;;;3.60;3.30;;;23.20;99.70;;;;;;5010862;28;20423;-79
2022/08/02 02:25:46;;;;;;;4.07;3.60;;;23.20;99.80;;;;;;5028534;28;20442;-78
2022/08/02 02:28:23;;;;;;;5.83;2.90;;;23.20;99.90;;;;;;5027991;28;20426;-80
2022/08/02 02:30:52;;;;;;;3.10;2.90;;;23.10;99.90;;;;;;5027421;28;20465;-79
2022/08/02 02:33:19;;;;;;;3.73;3.43;;;23.10;99.90;;;;;;5023781;28;20419;-78
2022/08/02 02:35:49;;;;;;;4.80;3.30;;;22.90;99.90;;;;;;5026348;28;20464;-79
2022/08/02 02:38:17;;;;;;;4.00;3.10;;;22.90;99.90;;;;;;5023669;28;20937;-79
2022/08/02 02:40:46;;;;;;;3.43;3.13;;;23.00;99.90;;;;;;5024160;28;20544;-79
2022/08/02 02:43:12;;;;;;;5.80;3.87;;;23.00;99.90;;;;;;5020898;28;20439;-79
2022/08/02 02:45:39;;;;;;;6.93;3.43;;;23.10;99.90;;;;;;5024938;28;20435;-78
2022/08/02 02:48:07;;;;;;;5.10;3.93;;;22.90;99.90;;;;;;5024519;28;20453;-81
2022/08/02 02:50:33;;;;;;;6.13;3.40;;;23.00;99.90;;;;;;5042830;28;20445;-79
2022/08/02 02:53:00;;;;;;;3.60;3.30;;;22.90;99.90;;;;;;5025062;28;20463;-79
2022/08/02 02:55:27;;;;;;;4.63;3.13;;;22.80;99.90;;;;;;5036704;28;20439;-80
2022/08/02 02:57:54;;;;;;;6.63;3.50;;;22.80;99.90;;;;;;5025653;28;20442;-79
2022/08/02 03:01:26;;;;;;;3.80;3.47;;;22.70;99.90;;;;;;5026241;28;20494;-80
2022/08/02 03:03:06;;;;;;;3.37;3.07;;;22.80;99.90;;;;;;5023167;28;20446;-81
2022/08/02 03:05:32;;;;;;;4.10;3.30;;;22.90;99.90;;;;;;5043276;28;20447;-79
2022/08/02 03:07:57;;;;;;;5.43;3.13;;;22.90;99.90;;;;;;5025273;28;20450;-79
2022/08/02 03:10:23;;;;;;;3.70;3.30;;;22.90;99.90;;;;;;5025116;28;20231;-80
2022/08/02 03:12:49;;;;;;;3.90;3.50;;;22.80;99.90;;;;;;5024690;28;20259;-80
2022/08/02 03:15:17;;;;;;;3.63;3.30;;;22.90;99.90;;;;;;5025526;28;20693;-81
2022/08/02 03:17:45;;;;;;;3.60;3.30;;;22.80;99.90;;;;;;5025117;28;20209;-83
2022/08/02 03:20:15;;;;;;;3.47;3.17;;;22.60;99.90;;;;;;5027588;28;20454;-79
2022/08/02 03:22:42;;;;;;;4.70;3.30;;;22.50;99.90;;;;;;5027642;28;20483;-85
2022/08/02 03:25:09;;;;;;;4.40;4.00;;;22.50;99.90;;;;;;5025458;28;20874;-81
2022/08/02 03:27:35;;;;;;;3.50;3.20;;;22.60;99.90;;;;;;5031333;28;20553;-82
2022/08/02 03:30:02;;;;;;;3.53;3.23;;;22.50;99.90;;;;;;5027896;28;21209;-83
2022/08/02 03:32:27;;;;;;;3.57;3.27;;;22.60;99.90;;;;;;5025554;28;20625;-83
2022/08/02 03:34:53;;;;;;;11.50;3.93;;;22.60;99.90;;;;;;5026874;28;20446;-80
2022/08/02 03:37:20;;;;;;;4.73;3.60;;;22.60;99.90;;;;;;5030527;28;20212;-79
2022/08/02 03:39:48;;;;;;;3.80;3.43;;;22.60;99.90;;;;;;5026868;28;20207;-82
2022/08/02 03:42:14;;;;;;;3.60;3.30;;;22.50;99.90;;;;;;5028117;28;20833;-82
2022/08/02 03:44:41;;;;;;;3.70;3.40;;;22.50;99.90;;;;;;5029533;28;20633;-83
2022/08/02 03:47:07;;;;;;;4.00;3.60;;;22.40;99.90;;;;;;5030688;28;20454;-83
2022/08/02 03:49:35;;;;;;;5.83;3.77;;;22.30;99.90;;;;;;5019815;28;20451;-81
2022/08/02 03:52:01;;;;;;;4.17;3.60;;;22.30;99.90;;;;;;5026367;28;20534;-81
2022/08/02 03:54:27;;;;;;;3.50;3.20;;;22.10;99.90;;;;;;5026348;28;20449;-83
2022/08/02 03:56:53;;;;;;;4.10;3.70;;;22.20;99.90;;;;;;5028843;28;20913;-80
2022/08/02 03:59:18;;;;;;;3.57;3.27;;;22.20;99.90;;;;;;5027314;28;20242;-81
2022/08/02 04:01:45;;;;;;;3.93;3.37;;;22.20;99.90;;;;;;5029857;28;20626;-80
2022/08/02 04:04:10;;;;;;;4.90;3.57;;;22.20;99.90;;;;;;5030571;28;20235;-82
2022/08/02 04:06:36;;;;;;;4.47;3.23;;;22.30;99.90;;;;;;5031147;28;20446;-82
2022/08/02 04:09:02;;;;;;;5.23;3.80;;;22.30;99.90;;;;;;5024982;28;20296;-82
2022/08/02 04:11:30;;;;;;;3.53;3.23;;;22.20;99.90;;;;;;5024110;28;20261;-81
2022/08/02 04:14:06;;;;;;;3.90;3.37;;;22.20;99.90;;;;;;5024108;28;20686;-80
2022/08/02 04:16:45;;;;;;;3.80;3.40;;;22.20;99.90;;;;;;5029598;28;20458;-80
2022/08/02 04:19:18;;;;;;;4.70;3.80;;;22.00;99.90;;;;;;5022412;28;20450;-82
2022/08/02 04:21:46;;;;;;;3.73;3.43;;;22.10;99.90;;;;;;5018192;28;20537;-83
2022/08/02 04:24:15;;;;;;;6.10;4.00;;;22.10;99.90;;;;;;5032244;28;20876;-79
2022/08/02 04:26:42;;;;;;;4.60;3.80;;;22.10;99.90;;;;;;5034936;28;21259;-80
2022/08/02 04:29:09;;;;;;;7.70;4.40;;;22.10;99.90;;;;;;5026564;28;20577;-83
2022/08/02 04:31:35;;;;;;;4.40;3.93;;;22.00;99.90;;;;;;5016815;28;20506;-82
2022/08/02 04:34:01;;;;;;;8.80;4.00;;;22.00;99.90;;;;;;5023038;28;20454;-81
2022/08/02 04:36:29;;;;;;;5.67;4.00;;;22.10;99.90;;;;;;5027253;28;20483;-81
2022/08/02 04:38:54;;;;;;;4.77;3.57;;;22.20;99.90;;;;;;5016352;28;20439;-79
2022/08/02 04:41:20;;;;;;;4.27;3.50;;;22.20;99.90;;;;;;5019973;28;22841;-81
2022/08/02 04:43:46;;;;;;;3.43;3.13;;;22.10;99.90;;;;;;5018856;28;20197;-79
2022/08/02 04:46:11;;;;;;;4.60;3.70;;;22.10;99.90;;;;;;5015389;28;20295;-79
2022/08/02 04:48:37;;;;;;;6.23;5.20;;;22.20;99.90;;;;;;5023979;28;20188;-79
2022/08/02 04:51:03;;;;;;;5.47;4.10;;;22.30;99.90;;;;;;5022414;28;20267;-84
2022/08/02 04:53:28;;;;;;;3.60;3.30;;;22.30;99.90;;;;;;5022991;28;20188;-79
2022/08/02 04:55:54;;;;;;;4.03;3.50;;;22.30;99.90;;;;;;5028471;28;21027;-81
2022/08/02 04:58:20;;;;;;;4.80;4.00;;;22.30;99.90;;;;;;5030695;28;20196;-82
2022/08/02 05:00:45;;;;;;;3.83;3.53;;;22.20;99.90;;;;;;5029148;28;20217;-83
2022/08/02 05:03:13;;;;;;;4.10;3.80;;;22.30;99.90;;;;;;5030987;28;20373;-80
2022/08/02 05:05:38;;;;;;;7.67;4.67;;;22.30;99.90;;;;;;5023894;28;20238;-81
2022/08/02 05:08:04;;;;;;;4.10;3.70;;;22.30;99.90;;;;;;5026707;28;20431;-82
2022/08/02 05:10:30;;;;;;;4.57;4.07;;;22.30;99.90;;;;;;5026408;28;20192;-79
2022/08/02 05:12:55;;;;;;;5.93;4.73;;;22.30;99.90;;;;;;5023548;28;20772;-80
2022/08/02 05:15:21;;;;;;;4.30;3.87;;;22.20;99.90;;;;;;5016394;28;20241;-80
2022/08/02 05:17:47;;;;;;;4.57;4.17;;;22.20;99.90;;;;;;5023096;28;20565;-81
2022/08/02 05:20:13;;;;;;;5.03;4.63;;;22.20;99.90;;;;;;5022429;28;20204;-82
2022/08/02 05:22:40;;;;;;;7.20;4.23;;;22.20;99.90;;;;;;5024527;28;20431;-81
2022/08/02 05:25:06;;;;;;;4.93;4.30;;;22.30;99.90;;;;;;5023091;28;20435;-80
2022/08/02 05:27:32;;;;;;;4.63;4.17;;;22.20;99.90;;;;;;5022509;28;20463;-81
2022/08/02 05:29:58;;;;;;;10.40;4.30;;;22.30;99.90;;;;;;5019950;28;20538;-82
2022/08/02 05:32:24;;;;;;;4.17;3.87;;;22.40;99.90;;;;;;5027460;28;20223;-81
2022/08/02 05:34:50;;;;;;;5.90;4.93;;;22.30;99.90;;;;;;5023530;28;20949;-82
2022/08/02 05:37:16;;;;;;;5.60;4.07;;;22.40;99.90;;;;;;5024681;28;20474;-83
2022/08/02 05:39:42;;;;;;;5.20;4.70;;;22.40;99.90;;;;;;5029750;28;20192;-80
2022/08/02 05:42:10;;;;;;;5.07;4.23;;;22.50;99.90;;;;;;5028559;28;20477;-78
2022/08/02 05:44:36;;;;;;;5.50;5.00;;;22.50;99.90;;;;;;5029815;28;20181;-82
2022/08/02 05:47:02;;;;;;;4.40;4.00;;;22.60;99.90;;;;;;5034541;28;20481;-76
2022/08/02 05:49:28;;;;;;;5.63;4.90;;;22.60;99.90;;;;;;5022326;28;20188;-76
2022/08/02 05:51:58;;;;;;;6.97;5.27;;;22.60;99.90;;;;;;5019167;28;20980;-75
2022/08/02 05:54:37;;;;;;;4.33;3.93;;;22.60;99.90;;;;;;5021345;28;20194;-76
2022/08/02 05:57:18;;;;;;;4.73;4.23;;;22.70;99.90;;;;;;5020565;28;20466;-75
2022/08/02 05:59:52;;;;;;;4.80;4.30;;;22.80;99.90;;;;;;5020922;28;20820;-76
2022/08/02 06:02:33;;;;;;;5.53;4.93;;;22.90;99.90;;;;;;5020097;28;20476;-76
2022/08/02 06:05:09;;;;;;;6.70;5.50;;;23.00;99.90;;;;;;5017549;28;20812;-76
2022/08/02 06:07:36;;;;;;;6.97;5.00;;;23.00;99.90;;;;;;5022139;28;20458;-76
2022/08/02 06:10:04;;;;;;;6.77;5.60;;;23.00;99.90;;;;;;5019781;28;20497;-76
2022/08/02 06:12:32;;;;;;;6.33;5.60;;;23.10;99.90;;;;;;5018763;28;20500;-75
2022/08/02 06:15:03;;;;;;;6.20;5.60;;;23.10;99.90;;;;;;5012408;28;20534;-76
2022/08/02 06:17:29;;;;;;;6.17;5.57;;;23.10;99.90;;;;;;5022924;28;20926;-76
2022/08/02 06:20:00;;;;;;;6.57;5.97;;;23.10;99.90;;;;;;5020223;28;20474;-76
2022/08/02 06:22:27;;;;;;;5.93;5.43;;;23.20;99.90;;;;;;5021565;28;20442;-76
2022/08/02 06:24:55;;;;;;;5.83;5.33;;;23.20;99.90;;;;;;5022587;28;20474;-76
2022/08/02 06:27:25;;;;;;;6.40;5.90;;;23.30;99.90;;;;;;5019032;28;20463;-75
2022/08/02 06:29:53;;;;;;;5.70;5.20;;;23.20;99.90;;;;;;5035451;28;20461;-76
2022/08/02 06:32:19;;;;;;;7.10;6.10;;;23.30;99.90;;;;;;5021493;28;20516;-76
2022/08/02 06:34:45;;;;;;;8.03;6.47;;;23.40;99.90;;;;;;5021627;28;20438;-77
2022/08/02 06:37:25;;;;;;;6.10;5.60;;;23.40;99.90;;;;;;5021970;28;20470;-75
2022/08/02 06:40:00;;;;;;;8.07;5.77;;;23.40;99.90;;;;;;5021661;28;20195;-75
2022/08/02 06:42:50;;;;;;;6.77;6.10;;;23.50;99.90;;;;;;5021305;28;20525;-78
2022/08/02 06:45:16;;;;;;;8.60;6.23;;;23.50;99.90;;;;;;5010334;28;20806;-76
2022/08/02 06:47:43;;;;;;;6.57;5.97;;;23.50;99.90;;;;;;5021248;28;20563;-75
2022/08/02 06:50:09;;;;;;;8.70;6.27;;;23.50;99.90;;;;;;5018948;28;20445;-74
2022/08/02 06:52:36;;;;;;;8.83;6.97;;;23.60;99.90;;;;;;5028833;28;20458;-75
2022/08/02 06:55:04;;;;;;;6.07;5.57;;;23.60;99.90;;;;;;5021879;28;20446;-73
2022/08/02 06:57:30;;;;;;;7.87;5.93;;;23.60;99.90;;;;;;5025721;28;20455;-74
2022/08/02 06:59:57;;;;;;;5.80;5.30;;;23.70;99.90;;;;;;5028097;28;20420;-75
2022/08/02 07:02:23;;;;;;;6.87;6.27;;;23.80;99.90;;;;;;5022385;28;20825;-74
2022/08/02 07:04:49;;;;;;;6.73;6.10;;;23.80;99.90;;;;;;5024523;28;20435;-74
2022/08/02 07:07:15;;;;;;;7.20;5.80;;;23.80;99.90;;;;;;5023583;28;20804;-74
2022/08/02 07:09:41;;;;;;;6.37;5.77;;;23.90;99.90;;;;;;5027192;28;20438;-73
2022/08/02 07:12:07;;;;;;;7.43;6.13;;;24.00;99.90;;;;;;5022496;28;20188;-74
2022/08/02 07:14:33;;;;;;;7.20;6.60;;;24.00;99.90;;;;;;5024127;28;20431;-74
2022/08/02 07:16:58;;;;;;;11.50;6.63;;;24.00;99.90;;;;;;5025687;28;20294;-75
2022/08/02 07:19:24;;;;;;;6.37;5.87;;;24.10;99.90;;;;;;5022878;28;20326;-73
2022/08/02 07:21:49;;;;;;;6.60;5.93;;;24.10;99.90;;;;;;5024310;28;20213;-74
2022/08/02 07:24:15;;;;;;;6.77;6.10;;;24.20;99.90;;;;;;5024945;28;20648;-73
2022/08/02 07:26:41;;;;;;;5.80;5.30;;;24.30;99.90;;;;;;5022931;28;20192;-74
2022/08/02 07:29:06;;;;;;;5.87;5.37;;;24.30;99.90;;;;;;5021529;28;20188;-74
2022/08/02 07:31:32;;;;;;;7.60;5.80;;;24.40;99.90;;;;;;5026453;28;20197;-74
2022/08/02 07:33:58;;;;;;;6.40;5.80;;;24.40;99.90;;;;;;5025884;28;20184;-74
2022/08/02 07:36:24;;;;;;;7.03;6.33;;;24.50;99.90;;;;;;5018127;28;20739;-74
2022/08/02 07:38:50;;;;;;;6.50;5.90;;;24.50;99.90;;;;;;5024398;28;20424;-74
2022/08/02 07:41:16;;;;;;;7.93;5.80;;;24.60;99.90;;;;;;5022842;28;20464;-75
2022/08/02 07:43:41;;;;;;;8.57;6.23;;;24.70;99.90;;;;;;5024534;28;20177;-75
2022/08/02 07:46:07;;;;;;;6.30;5.60;;;24.70;99.90;;;;;;5024390;28;20208;-74
2022/08/02 07:48:32;;;;;;;5.80;5.30;;;24.80;99.90;;;;;;5021150;28;20195;-74
2022/08/02 07:50:58;;;;;;;6.03;5.53;;;24.80;99.90;;;;;;5020762;28;20191;-74
2022/08/02 07:53:24;;;;;;;5.67;5.00;;;24.80;99.90;;;;;;5028889;28;20319;-74
2022/08/02 07:55:50;;;;;;;5.97;5.50;;;24.90;99.90;;;;;;5022238;28;20211;-74
2022/08/02 07:58:15;;;;;;;7.77;5.40;;;24.90;99.90;;;;;;5024516;28;20254;-75
2022/08/02 08:00:42;;;;;;;5.83;5.13;;;24.90;99.90;;;;;;5027888;28;20494;-74
2022/08/02 08:03:08;;;;;;;6.10;5.60;;;25.00;99.90;;;;;;5024691;28;20704;-74
2022/08/02 08:05:34;;;;;;;6.03;5.53;;;25.00;99.90;;;;;;5024462;28;20444;-73
2022/08/02 08:07:59;;;;;;;8.03;5.70;;;25.10;99.90;;;;;;5019188;28;20227;-73
2022/08/02 08:10:25;;;;;;;8.40;4.70;;;25.10;99.90;;;;;;5020350;28;20196;-74
2022/08/02 08:12:51;;;;;;;5.73;5.30;;;25.00;99.90;;;;;;5019528;28;20192;-73
2022/08/02 08:15:16;;;;;;;6.03;5.37;;;25.10;99.90;;;;;;5018516;28;20190;-74
2022/08/02 08:17:42;;;;;;;5.73;5.10;;;25.20;99.90;;;;;;5019720;28;20212;-74
2022/08/02 08:20:08;;;;;;;5.83;5.23;;;25.20;99.90;;;;;;5017511;28;20188;-74
2022/08/02 08:22:34;;;;;;;5.27;4.77;;;25.30;99.90;;;;;;5022501;28;20187;-74
2022/08/02 08:24:59;;;;;;;5.20;4.70;;;25.20;99.90;;;;;;5020898;28;20439;-83
2022/08/02 08:27:25;;;;;;;5.60;5.17;;;25.30;99.90;;;;;;5028005;28;20192;-77
2022/08/02 08:29:51;;;;;;;5.00;4.60;;;25.30;99.90;;;;;;5024766;28;20199;-75
2022/08/02 08:32:17;;;;;;;5.80;5.30;;;25.40;99.90;;;;;;5023534;28;20212;-75
2022/08/02 08:34:47;;;;;;;5.70;5.10;;;25.40;99.90;;;;;;5020935;28;20240;-74
2022/08/02 08:37:14;;;;;;;6.27;4.80;;;25.40;99.90;;;;;;5027069;28;20473;-76
2022/08/02 08:39:39;;;;;;;5.40;4.90;;;25.50;99.90;;;;;;5022872;28;20415;-76
2022/08/02 08:42:08;;;;;;;4.60;4.20;;;25.50;99.90;;;;;;5018479;28;20502;-76
2022/08/02 08:44:36;;;;;;;4.97;4.47;;;25.60;99.90;;;;;;5018899;28;20207;-75
2022/08/02 08:47:04;;;;;;;4.60;4.20;;;25.60;99.90;;;;;;5021958;28;20542;-76
2022/08/02 08:49:46;;;;;;;4.90;4.50;;;25.70;99.90;;;;;;5016724;28;20447;-76
2022/08/02 08:52:14;;;;;;;5.17;4.67;;;25.80;99.90;;;;;;5023815;28;20434;-75
2022/08/02 08:54:42;;;;;;;5.30;4.23;;;25.80;99.90;;;;;;5023110;28;20521;-76
2022/08/02 08:57:09;;;;;;;4.53;4.13;;;25.80;99.90;;;;;;5019432;28;20496;-76
2022/08/02 08:59:35;;;;;;;4.27;3.97;;;25.90;99.90;;;;;;5018725;28;20946;-76
2022/08/02 09:02:02;;;;;;;6.13;4.43;;;26.00;99.90;;;;;;5022569;28;20520;-76
2022/08/02 09:04:28;;;;;;;5.27;4.60;;;26.00;99.90;;;;;;5026238;28;20720;-76
2022/08/02 09:06:54;;;;;;;4.43;4.13;;;26.10;99.90;;;;;;5025959;28;20443;-76
2022/08/02 09:09:20;;;;;;;5.10;4.70;;;26.20;99.90;;;;;;5026957;28;20419;-76
2022/08/02 09:11:45;;;;;;;4.27;3.97;;;26.30;99.90;;;;;;5027011;28;20451;-76
2022/08/02 09:14:24;;;;;;;4.70;4.17;;;26.30;99.90;;;;;;5020265;28;20180;-76
2022/08/02 09:16:49;;;;;;;6.33;4.70;;;26.40;99.90;;;;;;5022626;28;20667;-76
2022/08/02 09:19:22;;;;;;;6.60;4.90;;;26.40;99.70;;;;;;5022293;28;20493;-77
2022/08/02 09:21:49;;;;;;;4.87;4.47;;;26.50;99.50;;;;;;5024912;28;20238;-76
2022/08/02 09:24:21;;;;;;;6.07;5.13;;;26.50;99.30;;;;;;5025370;28;20945;-76
2022/08/02 09:26:47;;;;;;;10.00;4.17;;;26.50;99.20;;;;;;5024386;28;20561;-76
2022/08/02 09:29:14;;;;;;;4.90;4.50;;;26.60;99.20;;;;;;5024474;28;20450;-76
2022/08/02 09:31:40;;;;;;;6.83;6.10;;;26.60;98.90;;;;;;5023063;28;20427;-76
2022/08/02 09:34:06;;;;;;;5.90;4.60;;;26.70;98.60;;;;;;5023878;28;20436;-76
2022/08/02 09:36:44;;;;;;;10.83;4.63;;;26.70;98.30;;;;;;5022064;28;20542;-76
2022/08/02 09:39:13;;;;;;;4.87;4.47;;;26.80;98.10;;;;;;5013293;28;20444;-76
2022/08/02 09:41:41;;;;;;;4.60;4.30;;;26.80;97.80;;;;;;5036073;28;21065;-76
2022/08/02 09:44:09;;;;;;;5.03;4.43;;;26.80;97.70;;;;;;5021558;28;20419;-76
2022/08/02 09:46:37;;;;;;;5.87;4.43;;;26.90;97.60;;;;;;5025577;28;20537;-75
2022/08/02 09:49:08;;;;;;;5.13;4.73;;;27.00;97.40;;;;;;5025671;28;20419;-75
2022/08/02 09:51:48;;;;;;;5.43;5.03;;;27.10;97.20;;;;;;5025386;28;21111;-75
2022/08/02 09:54:19;;;;;;;5.30;4.80;;;27.10;97.30;;;;;;5023558;28;20521;-76
2022/08/02 09:56:48;;;;;;;4.67;4.17;;;27.10;96.70;;;;;;5021340;28;20466;-76
2022/08/02 09:59:15;;;;;;;7.20;4.93;;;27.20;96.40;;;;;;5030164;28;20500;-76
2022/08/02 10:01:43;;;;;;;4.60;4.30;;;27.30;96.30;;;;;;5030493;28;20461;-76
2022/08/02 10:04:11;;;;;;;6.83;5.00;;;27.40;95.90;;;;;;5025713;28;20435;-76
2022/08/02 10:06:38;;;;;;;4.70;4.37;;;27.40;96.10;;;;;;5024065;28;20442;-76
2022/08/02 10:09:08;;;;;;;4.87;4.37;;;27.50;96.10;;;;;;5023402;28;20439;-75
2022/08/02 10:11:34;;;;;;;5.07;4.67;;;27.60;95.80;;;;;;5026163;28;20857;-76
2022/08/02 10:14:04;;;;;;;5.13;4.63;;;27.70;95.10;;;;;;5021678;28;20536;-76
2022/08/02 10:16:32;;;;;;;5.07;4.67;;;27.80;94.80;;;;;;5022545;28;20500;-75
2022/08/02 10:18:59;;;;;;;5.47;5.00;;;27.90;94.80;;;;;;5021469;28;20495;-75
2022/08/02 10:21:44;;;;;;;5.60;5.10;;;27.90;94.20;;;;;;5025023;28;20466;-75
2022/08/02 10:24:22;;;;;;;5.67;5.17;;;28.10;94.20;;;;;;5022449;28;20464;-74
2022/08/02 10:26:48;;;;;;;4.77;4.37;;;28.20;94.10;;;;;;5026057;28;20446;-75
2022/08/02 10:29:33;;;;;;;5.30;4.80;;;28.30;93.20;;;;;;5024339;28;20419;-75
2022/08/02 10:32:22;;;;;;;5.13;4.73;;;28.40;92.10;;;;;;5028537;28;20439;-76
2022/08/02 10:35:06;;;;;;;5.70;4.90;;;28.50;91.80;;;;;;5030088;28;20424;-76
2022/08/02 10:37:36;;;;;;;7.80;4.60;;;28.50;91.00;;;;;;5023383;28;20458;-75
2022/08/02 10:40:02;;;;;;;5.00;4.50;;;28.60;90.60;;;;;;5023029;28;20435;-76
2022/08/02 10:42:45;;;;;;;7.40;4.60;;;28.60;90.90;;;;;;5024767;28;20565;-75
2022/08/02 10:45:14;;;;;;;8.47;5.27;;;28.70;90.60;;;;;;5027318;28;20411;-76
2022/08/02 10:48:04;;;;;;;6.23;4.90;;;28.70;90.60;;;;;;5025772;28;21371;-76
2022/08/02 10:50:45;;;;;;;5.57;5.17;;;28.70;90.60;;;;;;5025970;28;20446;-77
2022/08/02 10:53:31;;;;;;;5.33;4.83;;;28.70;90.60;;;;;;5026949;28;20418;-76
2022/08/02 10:55:59;;;;;;;4.70;4.20;;;28.80;90.50;;;;;;5029661;28;20853;-76
2022/08/02 10:58:27;;;;;;;5.27;4.77;;;28.80;90.80;;;;;;5027260;28;20491;-76
2022/08/02 11:00:53;;;;;;;5.57;5.13;;;28.80;90.10;;;;;;5028136;28;20466;-76
2022/08/02 11:03:27;;;;;;;5.03;4.53;;;28.80;90.10;;;;;;5032991;28;20423;-76
2022/08/02 11:06:22;;;;;;;5.23;4.83;;;28.90;88.70;;;;;;5021624;28;20462;-77
2022/08/02 11:08:48;;;;;;;5.30;4.80;;;28.90;88.30;;;;;;5010689;28;20470;-76
2022/08/02 11:11:16;;;;;;;5.23;4.77;;;28.90;87.60;;;;;;5026887;28;20493;-77
2022/08/02 11:14:03;;;;;;;4.20;3.80;;;28.90;87.90;;;;;;5025216;28;20534;-76
2022/08/02 11:16:53;;;;;;;5.20;4.80;;;29.00;88.50;;;;;;5030080;28;20842;-77
2022/08/02 11:19:19;;;;;;;5.20;4.70;;;29.10;86.70;;;;;;5026729;28;20422;-76
2022/08/02 11:22:01;;;;;;;6.93;4.80;;;29.10;85.60;;;;;;5028819;28;21459;-77
2022/08/02 11:24:38;;;;;;;4.90;4.50;;;29.10;85.80;;;;;;5026922;28;20192;-77
2022/08/02 11:27:06;;;;;;;4.93;4.53;;;29.20;84.60;;;;;;5030189;28;20772;-76
2022/08/02 11:29:36;;;;;;;5.17;4.77;;;29.20;84.50;;;;;;5026116;28;20526;-77
2022/08/02 11:32:02;;;;;;;5.00;4.60;;;29.30;85.10;;;;;;5029591;28;20435;-77
2022/08/02 11:34:31;;;;;;;5.47;5.07;;;29.40;83.90;;;;;;5027898;28;20439;-76
2022/08/02 11:36:57;;;;;;;7.30;5.03;;;29.60;84.10;;;;;;5029802;28;20462;-76
2022/08/02 11:39:23;;;;;;;8.60;4.90;;;29.70;83.20;;;;;;5034434;28;20411;-76
2022/08/02 11:41:57;;;;;;;4.77;4.40;;;29.70;81.80;;;;;;5014409;28;20679;-76
2022/08/02 11:44:25;;;;;;;4.90;4.30;;;29.70;81.40;;;;;;5026384;28;20188;-76
2022/08/02 11:46:57;;;;;;;5.17;4.77;;;29.80;80.70;;;;;;5028252;28;20793;-76
2022/08/02 11:49:23;;;;;;;4.60;4.20;;;29.90;80.40;;;;;;5023344;28;20420;-76
2022/08/02 11:51:56;;;;;;;7.83;4.80;;;30.00;80.20;;;;;;5027622;28;20431;-75
2022/08/02 11:54:23;;;;;;;4.90;4.57;;;30.00;79.10;;;;;;5027535;28;20296;-76
2022/08/02 11:56:49;;;;;;;5.33;4.83;;;30.00;78.30;;;;;;5028804;28;21272;-76
2022/08/02 11:59:15;;;;;;;5.50;5.00;;;30.10;78.40;;;;;;5029246;28;20450;-76
2022/08/02 12:01:42;;;;;;;5.33;4.80;;;30.20;78.50;;;;;;5023370;28;20239;-76
2022/08/02 12:04:07;;;;;;;4.60;4.30;;;30.40;76.70;;;;;;5019130;28;20172;-76
2022/08/02 12:06:33;;;;;;;4.97;4.57;;;30.60;74.90;;;;;;5027215;28;20523;-76
2022/08/02 12:09:07;;;;;;;6.10;4.60;;;30.80;75.30;;;;;;5031013;28;20735;-76
2022/08/02 12:11:33;;;;;;;4.70;4.30;;;31.10;74.10;;;;;;5021553;28;20263;-76
2022/08/02 12:13:59;;;;;;;5.00;4.60;;;31.40;73.60;;;;;;5027484;28;20465;-76
2022/08/02 12:19:18;;;;;;;5.07;4.00;;;32.10;70.80;;;;;;5023070;28;20474;-76
2022/08/02 12:21:44;;;;;;;4.40;4.00;;;32.60;69.30;;;;;;5024785;28;20552;-76
2022/08/02 12:24:10;;;;;;;5.33;4.83;;;32.90;67.20;;;;;;5026569;28;20561;-76
2022/08/02 12:26:46;;;;;;;5.13;4.63;;;33.20;67.10;;;;;;5024689;28;20581;-76
2022/08/02 12:29:12;;;;;;;4.60;4.30;;;33.40;65.80;;;;;;5029516;28;20482;-76
2022/08/02 12:31:48;;;;;;;5.23;4.73;;;33.70;63.50;;;;;;5024685;28;20456;-76
2022/08/02 12:34:16;;;;;;;4.80;4.40;;;33.70;61.30;;;;;;5030513;28;20177;-76
2022/08/02 12:36:55;;;;;;;5.30;4.80;;;33.90;61.60;;;;;;5033077;28;20432;-76
2022/08/02 12:39:34;;;;;;;4.67;4.27;;;34.10;60.00;;;;;;5024420;28;20492;-76
2022/08/02 12:42:01;;;;;;;5.10;4.70;;;34.10;59.60;;;;;;5025642;28;21024;-76
2022/08/02 12:44:27;;;;;;;4.83;4.53;;;33.70;58.90;;;;;;5023300;28;20434;-76
2022/08/02 12:46:59;;;;;;;5.93;5.33;;;33.70;59.70;;;;;;5023271;28;20516;-76
2022/08/02 12:49:25;;;;;;;5.07;4.70;;;33.90;58.50;;;;;;5023830;28;20226;-76
2022/08/02 12:51:51;;;;;;;5.40;4.90;;;33.90;58.70;;;;;;5025638;28;20823;-76
2022/08/02 12:54:28;;;;;;;4.97;4.47;;;34.20;58.90;;;;;;5026562;28;20426;-76
2022/08/02 12:56:56;;;;;;;4.70;4.33;;;34.60;58.20;;;;;;5024066;28;20228;-75
2022/08/02 12:59:36;;;;;;;4.87;4.40;;;34.50;57.00;;;;;;5019163;28;20446;-75